sensor_id;sensor_type;location;lat;lon;timestamp;P1;durP1;ratioP1;P2;durP2;ratioP2
13291;SDS011;6714;53.056;8.690;2023-08-21T00:01:37;2.30;;;2.20;;
13291;SDS011;6714;53.056;8.690;2023-08-21T00:04:19;2.67;;;2.20;;
13291;SDS011;6714;53.056;8.690;2023-08-21T00:07:03;2.17;;;1.97;;
13291;SDS011;6714;53.056;8.690;2023-08-21T00:09:46;2.53;;;2.10;;
13291;SDS011;6714;53.056;8.690;2023-08-21T00:12:28;3.67;;;2.40;;
13291;SDS011;6714;53.056;8.690;2023-08-21T00:15:10;2.60;;;2.40;;
13291;SDS011;6714;53.056;8.690;2023-08-21T00:17:54;3.43;;;2.43;;
13291;SDS011;6714;53.056;8.690;2023-08-21T00:20:36;3.23;;;2.33;;
13291;SDS011;6714;53.056;8.690;2023-08-21T00:23:20;2.70;;;2.07;;
13291;SDS011;6714;53.056;8.690;2023-08-21T00:26:02;1.97;;;1.87;;
13291;SDS011;6714;53.056;8.690;2023-08-21T00:28:44;2.03;;;1.93;;
13291;SDS011;6714;53.056;8.690;2023-08-21T00:31:27;2.40;;;2.20;;
13291;SDS011;6714;53.056;8.690;2023-08-21T00:34:09;2.43;;;2.13;;
13291;SDS011;6714;53.056;8.690;2023-08-21T00:36:51;3.07;;;2.10;;
13291;SDS011;6714;53.056;8.690;2023-08-21T00:39:35;3.50;;;1.80;;
13291;SDS011;6714;53.056;8.690;2023-08-21T00:42:17;3.40;;;1.90;;
13291;SDS011;6714;53.056;8.690;2023-08-21T00:44:59;2.53;;;2.00;;
13291;SDS011;6714;53.056;8.690;2023-08-21T00:47:41;2.00;;;1.90;;
13291;SDS011;6714;53.056;8.690;2023-08-21T00:50:24;2.83;;;2.53;;
13291;SDS011;6714;53.056;8.690;2023-08-21T00:53:06;2.20;;;2.00;;
13291;SDS011;6714;53.056;8.690;2023-08-21T00:55:50;1.97;;;1.70;;
13291;SDS011;6714;53.056;8.690;2023-08-21T00:58:32;2.47;;;2.20;;
13291;SDS011;6714;53.056;8.690;2023-08-21T01:01:14;3.70;;;2.07;;
13291;SDS011;6714;53.056;8.690;2023-08-21T01:03:57;3.23;;;2.13;;
13291;SDS011;6714;53.056;8.690;2023-08-21T01:06:39;2.03;;;1.93;;
13291;SDS011;6714;53.056;8.690;2023-08-21T01:09:24;2.77;;;1.70;;
13291;SDS011;6714;53.056;8.690;2023-08-21T01:12:09;2.63;;;1.83;;
13291;SDS011;6714;53.056;8.690;2023-08-21T01:14:54;2.13;;;1.93;;
13291;SDS011;6714;53.056;8.690;2023-08-21T01:17:39;1.70;;;1.60;;
13291;SDS011;6714;53.056;8.690;2023-08-21T01:20:22;2.63;;;2.10;;
13291;SDS011;6714;53.056;8.690;2023-08-21T01:23:05;1.87;;;1.77;;
13291;SDS011;6714;53.056;8.690;2023-08-21T01:25:48;1.83;;;1.73;;
13291;SDS011;6714;53.056;8.690;2023-08-21T01:28:31;1.70;;;1.60;;
13291;SDS011;6714;53.056;8.690;2023-08-21T01:31:14;1.80;;;1.70;;
13291;SDS011;6714;53.056;8.690;2023-08-21T01:33:58;1.80;;;1.70;;
13291;SDS011;6714;53.056;8.690;2023-08-21T01:36:41;1.70;;;1.60;;
13291;SDS011;6714;53.056;8.690;2023-08-21T01:39:24;2.73;;;1.90;;
13291;SDS011;6714;53.056;8.690;2023-08-21T01:42:08;2.27;;;2.10;;
13291;SDS011;6714;53.056;8.690;2023-08-21T01:44:51;2.73;;;2.27;;
13291;SDS011;6714;53.056;8.690;2023-08-21T01:47:33;2.37;;;2.17;;
13291;SDS011;6714;53.056;8.690;2023-08-21T01:50:15;1.93;;;1.70;;
13291;SDS011;6714;53.056;8.690;2023-08-21T01:52:57;1.97;;;1.77;;
13291;SDS011;6714;53.056;8.690;2023-08-21T01:55:40;1.97;;;1.83;;
13291;SDS011;6714;53.056;8.690;2023-08-21T01:58:23;2.07;;;1.93;;
13291;SDS011;6714;53.056;8.690;2023-08-21T02:01:05;2.50;;;2.30;;
13291;SDS011;6714;53.056;8.690;2023-08-21T02:03:47;1.63;;;1.50;;
13291;SDS011;6714;53.056;8.690;2023-08-21T02:06:30;3.50;;;2.20;;
13291;SDS011;6714;53.056;8.690;2023-08-21T02:09:12;2.10;;;1.90;;
13291;SDS011;6714;53.056;8.690;2023-08-21T02:11:54;2.67;;;2.17;;
13291;SDS011;6714;53.056;8.690;2023-08-21T02:14:38;2.07;;;1.87;;
13291;SDS011;6714;53.056;8.690;2023-08-21T02:17:20;2.00;;;1.90;;
13291;SDS011;6714;53.056;8.690;2023-08-21T02:20:02;2.40;;;2.20;;
13291;SDS011;6714;53.056;8.690;2023-08-21T02:22:44;4.33;;;2.40;;
13291;SDS011;6714;53.056;8.690;2023-08-21T02:25:26;2.30;;;1.90;;
13291;SDS011;6714;53.056;8.690;2023-08-21T02:28:08;2.33;;;2.17;;
13291;SDS011;6714;53.056;8.690;2023-08-21T02:30:52;2.23;;;2.10;;
13291;SDS011;6714;53.056;8.690;2023-08-21T02:33:34;2.37;;;2.10;;
13291;SDS011;6714;53.056;8.690;2023-08-21T02:36:17;1.97;;;1.73;;
13291;SDS011;6714;53.056;8.690;2023-08-21T02:38:59;2.20;;;2.00;;
13291;SDS011;6714;53.056;8.690;2023-08-21T02:41:41;1.70;;;1.60;;
13291;SDS011;6714;53.056;8.690;2023-08-21T02:44:23;1.93;;;1.63;;
13291;SDS011;6714;53.056;8.690;2023-08-21T02:47:07;3.60;;;2.17;;
13291;SDS011;6714;53.056;8.690;2023-08-21T02:49:49;2.33;;;1.80;;
13291;SDS011;6714;53.056;8.690;2023-08-21T02:52:31;1.93;;;1.80;;
13291;SDS011;6714;53.056;8.690;2023-08-21T02:55:14;2.20;;;2.10;;
13291;SDS011;6714;53.056;8.690;2023-08-21T02:57:56;1.80;;;1.70;;
13291;SDS011;6714;53.056;8.690;2023-08-21T03:00:38;1.73;;;1.63;;
13291;SDS011;6714;53.056;8.690;2023-08-21T03:03:21;2.50;;;2.20;;
13291;SDS011;6714;53.056;8.690;2023-08-21T03:06:04;2.73;;;2.00;;
13291;SDS011;6714;53.056;8.690;2023-08-21T03:08:46;2.00;;;1.80;;
13291;SDS011;6714;53.056;8.690;2023-08-21T03:11:28;3.93;;;2.90;;
13291;SDS011;6714;53.056;8.690;2023-08-21T03:14:10;4.57;;;3.33;;
13291;SDS011;6714;53.056;8.690;2023-08-21T03:16:52;5.60;;;3.43;;
13291;SDS011;6714;53.056;8.690;2023-08-21T03:19:36;2.53;;;2.43;;
13291;SDS011;6714;53.056;8.690;2023-08-21T03:22:18;5.23;;;3.83;;
13291;SDS011;6714;53.056;8.690;2023-08-21T03:25:00;5.20;;;4.70;;
13291;SDS011;6714;53.056;8.690;2023-08-21T03:27:43;5.03;;;4.50;;
13291;SDS011;6714;53.056;8.690;2023-08-21T03:30:29;5.40;;;4.50;;
13291;SDS011;6714;53.056;8.690;2023-08-21T03:33:11;4.67;;;3.80;;
13291;SDS011;6714;53.056;8.690;2023-08-21T03:35:54;5.00;;;4.50;;
13291;SDS011;6714;53.056;8.690;2023-08-21T03:38:37;3.63;;;3.33;;
13291;SDS011;6714;53.056;8.690;2023-08-21T03:41:19;5.90;;;5.30;;
13291;SDS011;6714;53.056;8.690;2023-08-21T03:44:01;4.83;;;4.27;;
13291;SDS011;6714;53.056;8.690;2023-08-21T03:46:43;4.77;;;4.20;;
13291;SDS011;6714;53.056;8.690;2023-08-21T03:49:25;4.63;;;4.23;;
13291;SDS011;6714;53.056;8.690;2023-08-21T03:52:09;4.87;;;4.40;;
13291;SDS011;6714;53.056;8.690;2023-08-21T03:54:51;5.70;;;5.13;;
13291;SDS011;6714;53.056;8.690;2023-08-21T03:57:33;5.50;;;5.00;;
13291;SDS011;6714;53.056;8.690;2023-08-21T04:00:16;6.33;;;5.73;;
13291;SDS011;6714;53.056;8.690;2023-08-21T04:02:58;4.37;;;3.97;;
13291;SDS011;6714;53.056;8.690;2023-08-21T04:05:40;4.80;;;4.40;;
13291;SDS011;6714;53.056;8.690;2023-08-21T04:08:23;5.73;;;5.20;;
13291;SDS011;6714;53.056;8.690;2023-08-21T04:11:06;4.70;;;4.23;;
13291;SDS011;6714;53.056;8.690;2023-08-21T04:13:48;3.53;;;3.23;;
13291;SDS011;6714;53.056;8.690;2023-08-21T04:16:30;4.23;;;3.93;;
13291;SDS011;6714;53.056;8.690;2023-08-21T04:19:12;4.10;;;3.70;;
13291;SDS011;6714;53.056;8.690;2023-08-21T04:21:54;5.07;;;4.53;;
13291;SDS011;6714;53.056;8.690;2023-08-21T04:24:38;4.77;;;4.37;;
13291;SDS011;6714;53.056;8.690;2023-08-21T04:27:20;4.43;;;4.03;;
13291;SDS011;6714;53.056;8.690;2023-08-21T04:30:02;4.47;;;4.13;;
13291;SDS011;6714;53.056;8.690;2023-08-21T04:32:45;4.33;;;4.03;;
13291;SDS011;6714;53.056;8.690;2023-08-21T04:35:27;4.47;;;4.17;;
13291;SDS011;6714;53.056;8.690;2023-08-21T04:38:09;4.03;;;3.73;;
13291;SDS011;6714;53.056;8.690;2023-08-21T04:40:52;6.30;;;4.53;;
13291;SDS011;6714;53.056;8.690;2023-08-21T04:43:35;5.03;;;4.63;;
13291;SDS011;6714;53.056;8.690;2023-08-21T04:46:17;5.87;;;4.70;;
13291;SDS011;6714;53.056;8.690;2023-08-21T04:49:00;3.63;;;3.33;;
13291;SDS011;6714;53.056;8.690;2023-08-21T04:51:42;6.23;;;4.80;;
13291;SDS011;6714;53.056;8.690;2023-08-21T04:54:24;4.30;;;4.00;;
13291;SDS011;6714;53.056;8.690;2023-08-21T04:57:08;4.40;;;4.00;;
13291;SDS011;6714;53.056;8.690;2023-08-21T04:59:50;5.67;;;5.17;;
13291;SDS011;6714;53.056;8.690;2023-08-21T05:02:33;4.80;;;4.40;;
13291;SDS011;6714;53.056;8.690;2023-08-21T05:05:15;5.33;;;4.40;;
13291;SDS011;6714;53.056;8.690;2023-08-21T05:07:57;4.97;;;4.53;;
13291;SDS011;6714;53.056;8.690;2023-08-21T05:10:40;5.20;;;4.80;;
13291;SDS011;6714;53.056;8.690;2023-08-21T05:13:23;6.60;;;5.33;;
13291;SDS011;6714;53.056;8.690;2023-08-21T05:16:05;6.60;;;5.93;;
13291;SDS011;6714;53.056;8.690;2023-08-21T05:18:48;6.47;;;5.43;;
13291;SDS011;6714;53.056;8.690;2023-08-21T05:21:30;5.77;;;5.27;;
13291;SDS011;6714;53.056;8.690;2023-08-21T05:24:12;7.20;;;6.00;;
13291;SDS011;6714;53.056;8.690;2023-08-21T05:26:54;6.40;;;5.80;;
13291;SDS011;6714;53.056;8.690;2023-08-21T05:29:38;7.90;;;6.07;;
13291;SDS011;6714;53.056;8.690;2023-08-21T05:32:20;6.03;;;5.53;;
13291;SDS011;6714;53.056;8.690;2023-08-21T05:35:02;7.50;;;6.80;;
13291;SDS011;6714;53.056;8.690;2023-08-21T05:37:45;6.47;;;5.87;;
13291;SDS011;6714;53.056;8.690;2023-08-21T05:40:27;7.90;;;6.37;;
13291;SDS011;6714;53.056;8.690;2023-08-21T05:43:09;6.73;;;6.13;;
13291;SDS011;6714;53.056;8.690;2023-08-21T05:45:52;8.60;;;6.43;;
13291;SDS011;6714;53.056;8.690;2023-08-21T05:48:35;7.00;;;6.40;;
13291;SDS011;6714;53.056;8.690;2023-08-21T05:51:17;7.60;;;6.77;;
13291;SDS011;6714;53.056;8.690;2023-08-21T05:53:59;9.40;;;7.17;;
13291;SDS011;6714;53.056;8.690;2023-08-21T05:56:41;9.37;;;7.40;;
13291;SDS011;6714;53.056;8.690;2023-08-21T05:59:27;9.03;;;7.93;;
13291;SDS011;6714;53.056;8.690;2023-08-21T06:02:11;10.63;;;8.17;;
13291;SDS011;6714;53.056;8.690;2023-08-21T06:04:53;9.00;;;8.10;;
13291;SDS011;6714;53.056;8.690;2023-08-21T06:07:35;8.13;;;7.33;;
13291;SDS011;6714;53.056;8.690;2023-08-21T06:10:18;11.47;;;9.17;;
13291;SDS011;6714;53.056;8.690;2023-08-21T06:13:00;9.80;;;8.60;;
13291;SDS011;6714;53.056;8.690;2023-08-21T06:15:43;14.53;;;10.27;;
13291;SDS011;6714;53.056;8.690;2023-08-21T06:18:26;12.40;;;9.83;;
13291;SDS011;6714;53.056;8.690;2023-08-21T06:21:08;12.70;;;10.00;;
13291;SDS011;6714;53.056;8.690;2023-08-21T06:23:51;11.33;;;9.70;;
13291;SDS011;6714;53.056;8.690;2023-08-21T06:26:33;12.93;;;10.27;;
13291;SDS011;6714;53.056;8.690;2023-08-21T06:29:15;13.70;;;10.23;;
13291;SDS011;6714;53.056;8.690;2023-08-21T06:31:57;14.87;;;11.80;;
13291;SDS011;6714;53.056;8.690;2023-08-21T06:34:41;13.27;;;10.07;;
13291;SDS011;6714;53.056;8.690;2023-08-21T06:37:23;14.27;;;9.83;;
13291;SDS011;6714;53.056;8.690;2023-08-21T06:40:06;15.70;;;11.50;;
13291;SDS011;6714;53.056;8.690;2023-08-21T06:42:48;14.60;;;11.33;;
13291;SDS011;6714;53.056;8.690;2023-08-21T06:45:31;14.60;;;11.50;;
13291;SDS011;6714;53.056;8.690;2023-08-21T06:48:13;17.73;;;12.07;;
13291;SDS011;6714;53.056;8.690;2023-08-21T06:50:57;19.73;;;14.07;;
13291;SDS011;6714;53.056;8.690;2023-08-21T06:53:39;18.30;;;12.90;;
13291;SDS011;6714;53.056;8.690;2023-08-21T06:56:21;18.43;;;13.97;;
13291;SDS011;6714;53.056;8.690;2023-08-21T06:59:04;23.37;;;15.97;;
13291;SDS011;6714;53.056;8.690;2023-08-21T07:01:46;17.23;;;12.53;;
13291;SDS011;6714;53.056;8.690;2023-08-21T07:04:28;26.00;;;15.00;;
13291;SDS011;6714;53.056;8.690;2023-08-21T07:07:12;20.20;;;14.13;;
13291;SDS011;6714;53.056;8.690;2023-08-21T07:09:54;25.03;;;12.93;;
13291;SDS011;6714;53.056;8.690;2023-08-21T07:12:36;20.70;;;10.90;;
13291;SDS011;6714;53.056;8.690;2023-08-21T07:15:18;11.90;;;7.10;;
13291;SDS011;6714;53.056;8.690;2023-08-21T07:18:01;13.97;;;8.00;;
13291;SDS011;6714;53.056;8.690;2023-08-21T07:20:43;10.17;;;6.50;;
13291;SDS011;6714;53.056;8.690;2023-08-21T07:23:26;18.03;;;9.30;;
13291;SDS011;6714;53.056;8.690;2023-08-21T07:26:08;14.10;;;8.20;;
13291;SDS011;6714;53.056;8.690;2023-08-21T07:28:51;15.40;;;8.23;;
13291;SDS011;6714;53.056;8.690;2023-08-21T07:31:33;16.00;;;8.83;;
13291;SDS011;6714;53.056;8.690;2023-08-21T07:34:15;10.67;;;5.60;;
13291;SDS011;6714;53.056;8.690;2023-08-21T07:36:57;11.30;;;5.30;;
13291;SDS011;6714;53.056;8.690;2023-08-21T07:39:41;12.20;;;6.00;;
13291;SDS011;6714;53.056;8.690;2023-08-21T07:42:23;6.90;;;4.70;;
13291;SDS011;6714;53.056;8.690;2023-08-21T07:45:06;7.20;;;3.87;;
13291;SDS011;6714;53.056;8.690;2023-08-21T07:47:48;7.93;;;3.37;;
13291;SDS011;6714;53.056;8.690;2023-08-21T07:50:30;4.83;;;2.47;;
13291;SDS011;6714;53.056;8.690;2023-08-21T07:53:12;4.73;;;2.47;;
13291;SDS011;6714;53.056;8.690;2023-08-21T07:55:56;5.53;;;2.43;;
13291;SDS011;6714;53.056;8.690;2023-08-21T07:58:38;6.23;;;2.53;;
13291;SDS011;6714;53.056;8.690;2023-08-21T08:01:21;5.07;;;2.80;;
13291;SDS011;6714;53.056;8.690;2023-08-21T08:04:03;4.03;;;2.20;;
13291;SDS011;6714;53.056;8.690;2023-08-21T08:06:45;4.83;;;2.30;;
13291;SDS011;6714;53.056;8.690;2023-08-21T08:09:28;2.50;;;1.63;;
13291;SDS011;6714;53.056;8.690;2023-08-21T08:12:11;2.77;;;1.90;;
13291;SDS011;6714;53.056;8.690;2023-08-21T08:14:53;2.57;;;1.80;;
13291;SDS011;6714;53.056;8.690;2023-08-21T08:17:36;1.60;;;1.50;;
13291;SDS011;6714;53.056;8.690;2023-08-21T08:20:18;3.93;;;1.87;;
13291;SDS011;6714;53.056;8.690;2023-08-21T08:23:00;1.83;;;1.57;;
13291;SDS011;6714;53.056;8.690;2023-08-21T08:25:42;3.90;;;1.83;;
13291;SDS011;6714;53.056;8.690;2023-08-21T08:28:26;5.07;;;2.10;;
13291;SDS011;6714;53.056;8.690;2023-08-21T08:31:13;5.10;;;2.20;;
13291;SDS011;6714;53.056;8.690;2023-08-21T08:33:55;2.50;;;1.53;;
13291;SDS011;6714;53.056;8.690;2023-08-21T08:36:38;4.63;;;1.90;;
13291;SDS011;6714;53.056;8.690;2023-08-21T08:39:21;4.40;;;1.90;;
13291;SDS011;6714;53.056;8.690;2023-08-21T08:42:05;6.13;;;2.13;;
13291;SDS011;6714;53.056;8.690;2023-08-21T08:44:48;4.20;;;1.87;;
13291;SDS011;6714;53.056;8.690;2023-08-21T08:47:31;2.83;;;2.00;;
13291;SDS011;6714;53.056;8.690;2023-08-21T08:50:14;4.07;;;1.90;;
13291;SDS011;6714;53.056;8.690;2023-08-21T08:52:57;3.77;;;1.70;;
13291;SDS011;6714;53.056;8.690;2023-08-21T08:55:40;3.50;;;2.03;;
13291;SDS011;6714;53.056;8.690;2023-08-21T08:58:22;2.63;;;1.87;;
13291;SDS011;6714;53.056;8.690;2023-08-21T09:01:06;3.27;;;1.50;;
13291;SDS011;6714;53.056;8.690;2023-08-21T09:06:31;2.93;;;1.37;;
13291;SDS011;6714;53.056;8.690;2023-08-21T09:09:14;1.50;;;1.40;;
13291;SDS011;6714;53.056;8.690;2023-08-21T09:11:56;2.53;;;1.43;;
13291;SDS011;6714;53.056;8.690;2023-08-21T09:14:38;2.97;;;1.57;;
13291;SDS011;6714;53.056;8.690;2023-08-21T09:17:22;3.23;;;1.50;;
13291;SDS011;6714;53.056;8.690;2023-08-21T09:20:04;2.40;;;1.27;;
13291;SDS011;6714;53.056;8.690;2023-08-21T09:22:52;2.20;;;1.40;;
13291;SDS011;6714;53.056;8.690;2023-08-21T09:25:35;4.20;;;1.53;;
13291;SDS011;6714;53.056;8.690;2023-08-21T09:28:18;2.00;;;1.07;;
13291;SDS011;6714;53.056;8.690;2023-08-21T09:31:01;2.03;;;1.33;;
13291;SDS011;6714;53.056;8.690;2023-08-21T09:33:44;1.92;;;1.40;;
13291;SDS011;6714;53.056;8.690;2023-08-21T09:36:37;1.90;;;1.30;;
13291;SDS011;6714;53.056;8.690;2023-08-21T09:39:20;3.90;;;1.30;;
13291;SDS011;6714;53.056;8.690;2023-08-21T09:42:04;1.42;;;1.15;;
13291;SDS011;6714;53.056;8.690;2023-08-21T09:44:47;2.72;;;1.45;;
13291;SDS011;6714;53.056;8.690;2023-08-21T09:47:30;1.63;;;1.20;;
13291;SDS011;6714;53.056;8.690;2023-08-21T09:50:15;1.60;;;1.23;;
13291;SDS011;6714;53.056;8.690;2023-08-21T09:52:58;2.63;;;1.23;;
13291;SDS011;6714;53.056;8.690;2023-08-21T09:55:40;2.08;;;1.20;;
13291;SDS011;6714;53.056;8.690;2023-08-21T09:58:23;1.73;;;1.15;;
13291;SDS011;6714;53.056;8.690;2023-08-21T10:01:06;1.35;;;1.10;;
13291;SDS011;6714;53.056;8.690;2023-08-21T10:03:53;2.80;;;1.40;;
13291;SDS011;6714;53.056;8.690;2023-08-21T10:06:37;1.55;;;1.30;;
13291;SDS011;6714;53.056;8.690;2023-08-21T10:09:20;1.48;;;1.05;;
13291;SDS011;6714;53.056;8.690;2023-08-21T10:12:03;1.95;;;1.20;;
13291;SDS011;6714;53.056;8.690;2023-08-21T10:14:45;1.30;;;1.20;;
13291;SDS011;6714;53.056;8.690;2023-08-21T10:17:28;1.13;;;1.02;;
13291;SDS011;6714;53.056;8.690;2023-08-21T10:20:10;1.52;;;0.98;;
13291;SDS011;6714;53.056;8.690;2023-08-21T10:22:54;1.73;;;1.10;;
13291;SDS011;6714;53.056;8.690;2023-08-21T10:25:40;1.33;;;1.13;;
13291;SDS011;6714;53.056;8.690;2023-08-21T10:28:23;1.65;;;1.17;;
13291;SDS011;6714;53.056;8.690;2023-08-21T10:34:07;1.38;;;1.10;;
13291;SDS011;6714;53.056;8.690;2023-08-21T10:39:55;1.42;;;0.90;;
13291;SDS011;6714;53.056;8.690;2023-08-21T10:42:38;0.90;;;0.80;;
13291;SDS011;6714;53.056;8.690;2023-08-21T10:45:21;1.20;;;0.93;;
13291;SDS011;6714;53.056;8.690;2023-08-21T10:48:03;1.13;;;1.02;;
13291;SDS011;6714;53.056;8.690;2023-08-21T10:50:45;1.23;;;1.00;;
13291;SDS011;6714;53.056;8.690;2023-08-21T10:53:27;0.82;;;0.82;;
13291;SDS011;6714;53.056;8.690;2023-08-21T10:56:11;1.25;;;0.90;;
13291;SDS011;6714;53.056;8.690;2023-08-21T10:58:53;1.02;;;0.93;;
13291;SDS011;6714;53.056;8.690;2023-08-21T11:01:42;1.25;;;1.02;;
13291;SDS011;6714;53.056;8.690;2023-08-21T11:04:25;1.30;;;1.15;;
13291;SDS011;6714;53.056;8.690;2023-08-21T11:07:07;1.95;;;1.00;;
13291;SDS011;6714;53.056;8.690;2023-08-21T11:09:49;1.55;;;1.00;;
13291;SDS011;6714;53.056;8.690;2023-08-21T11:12:33;2.95;;;1.10;;
13291;SDS011;6714;53.056;8.690;2023-08-21T11:15:15;4.95;;;1.58;;
13291;SDS011;6714;53.056;8.690;2023-08-21T11:17:57;1.10;;;0.98;;
13291;SDS011;6714;53.056;8.690;2023-08-21T11:20:40;1.90;;;1.10;;
13291;SDS011;6714;53.056;8.690;2023-08-21T11:23:31;1.30;;;0.95;;
13291;SDS011;6714;53.056;8.690;2023-08-21T11:26:13;1.33;;;1.10;;
13291;SDS011;6714;53.056;8.690;2023-08-21T11:28:57;0.75;;;0.75;;
13291;SDS011;6714;53.056;8.690;2023-08-21T11:31:42;1.40;;;1.00;;
13291;SDS011;6714;53.056;8.690;2023-08-21T11:34:27;1.08;;;1.05;;
13291;SDS011;6714;53.056;8.690;2023-08-21T11:37:10;1.60;;;0.93;;
13291;SDS011;6714;53.056;8.690;2023-08-21T11:39:52;0.90;;;0.90;;
13291;SDS011;6714;53.056;8.690;2023-08-21T11:42:35;1.80;;;1.10;;
13291;SDS011;6714;53.056;8.690;2023-08-21T11:45:19;1.10;;;1.00;;
13291;SDS011;6714;53.056;8.690;2023-08-21T11:48:02;1.75;;;1.10;;
13291;SDS011;6714;53.056;8.690;2023-08-21T11:50:44;1.20;;;0.90;;
13291;SDS011;6714;53.056;8.690;2023-08-21T11:53:30;1.10;;;1.00;;
13291;SDS011;6714;53.056;8.690;2023-08-21T11:56:13;0.75;;;0.73;;
13291;SDS011;6714;53.056;8.690;2023-08-21T11:58:55;1.67;;;1.20;;
13291;SDS011;6714;53.056;8.690;2023-08-21T12:01:40;1.73;;;0.80;;
13291;SDS011;6714;53.056;8.690;2023-08-21T12:04:22;1.20;;;1.02;;
13291;SDS011;6714;53.056;8.690;2023-08-21T12:07:04;1.35;;;0.90;;
13291;SDS011;6714;53.056;8.690;2023-08-21T12:09:47;1.10;;;1.00;;
13291;SDS011;6714;53.056;8.690;2023-08-21T12:12:29;1.85;;;1.17;;
13291;SDS011;6714;53.056;8.690;2023-08-21T12:15:11;2.03;;;1.20;;
13291;SDS011;6714;53.056;8.690;2023-08-21T12:17:55;1.17;;;1.08;;
13291;SDS011;6714;53.056;8.690;2023-08-21T12:20:37;1.17;;;0.90;;
13291;SDS011;6714;53.056;8.690;2023-08-21T12:23:19;1.10;;;0.90;;
13291;SDS011;6714;53.056;8.690;2023-08-21T12:26:02;1.38;;;1.08;;
13291;SDS011;6714;53.056;8.690;2023-08-21T12:28:44;1.10;;;1.00;;
13291;SDS011;6714;53.056;8.690;2023-08-21T12:31:26;1.10;;;0.90;;
13291;SDS011;6714;53.056;8.690;2023-08-21T12:34:09;0.90;;;0.90;;
13291;SDS011;6714;53.056;8.690;2023-08-21T12:36:52;1.08;;;1.00;;
13291;SDS011;6714;53.056;8.690;2023-08-21T12:39:34;1.00;;;0.80;;
13291;SDS011;6714;53.056;8.690;2023-08-21T12:42:16;1.27;;;0.98;;
13291;SDS011;6714;53.056;8.690;2023-08-21T12:44:58;1.52;;;1.30;;
13291;SDS011;6714;53.056;8.690;2023-08-21T12:47:40;1.00;;;1.00;;
13291;SDS011;6714;53.056;8.690;2023-08-21T12:50:24;1.10;;;1.10;;
13291;SDS011;6714;53.056;8.690;2023-08-21T12:53:06;1.05;;;0.93;;
13291;SDS011;6714;53.056;8.690;2023-08-21T12:55:48;1.30;;;1.20;;
13291;SDS011;6714;53.056;8.690;2023-08-21T12:58:30;1.23;;;1.05;;
13291;SDS011;6714;53.056;8.690;2023-08-21T13:01:13;0.88;;;0.88;;
13291;SDS011;6714;53.056;8.690;2023-08-21T13:03:55;0.90;;;0.90;;
13291;SDS011;6714;53.056;8.690;2023-08-21T13:06:39;1.13;;;1.13;;
13291;SDS011;6714;53.056;8.690;2023-08-21T13:09:22;0.90;;;0.90;;
13291;SDS011;6714;53.056;8.690;2023-08-21T13:12:05;1.30;;;1.05;;
13291;SDS011;6714;53.056;8.690;2023-08-21T13:14:48;0.82;;;0.82;;
13291;SDS011;6714;53.056;8.690;2023-08-21T13:17:30;0.93;;;0.93;;
13291;SDS011;6714;53.056;8.690;2023-08-21T13:20:12;1.52;;;0.95;;
13291;SDS011;6714;53.056;8.690;2023-08-21T13:22:56;1.02;;;0.93;;
13291;SDS011;6714;53.056;8.690;2023-08-21T13:25:38;1.02;;;1.02;;
13291;SDS011;6714;53.056;8.690;2023-08-21T13:28:20;0.90;;;0.90;;
13291;SDS011;6714;53.056;8.690;2023-08-21T13:31:03;0.85;;;0.85;;
13291;SDS011;6714;53.056;8.690;2023-08-21T13:33:47;1.38;;;1.20;;
13291;SDS011;6714;53.056;8.690;2023-08-21T13:36:29;1.00;;;1.00;;
13291;SDS011;6714;53.056;8.690;2023-08-21T13:39:13;1.13;;;1.00;;
13291;SDS011;6714;53.056;8.690;2023-08-21T13:41:55;1.00;;;0.90;;
13291;SDS011;6714;53.056;8.690;2023-08-21T13:44:37;1.48;;;1.10;;
13291;SDS011;6714;53.056;8.690;2023-08-21T13:47:19;2.70;;;1.05;;
13291;SDS011;6714;53.056;8.690;2023-08-21T13:50:02;0.85;;;0.85;;
13291;SDS011;6714;53.056;8.690;2023-08-21T13:52:45;1.25;;;1.10;;
13291;SDS011;6714;53.056;8.690;2023-08-21T13:55:29;1.10;;;1.00;;
13291;SDS011;6714;53.056;8.690;2023-08-21T13:58:11;1.10;;;1.10;;
13291;SDS011;6714;53.056;8.690;2023-08-21T14:00:53;0.90;;;0.90;;
13291;SDS011;6714;53.056;8.690;2023-08-21T14:03:37;0.93;;;0.93;;
13291;SDS011;6714;53.056;8.690;2023-08-21T14:06:19;0.90;;;0.90;;
13291;SDS011;6714;53.056;8.690;2023-08-21T14:09:01;1.42;;;1.00;;
13291;SDS011;6714;53.056;8.690;2023-08-21T14:11:45;1.30;;;1.10;;
13291;SDS011;6714;53.056;8.690;2023-08-21T14:14:27;1.20;;;1.10;;
13291;SDS011;6714;53.056;8.690;2023-08-21T14:17:09;1.00;;;0.90;;
13291;SDS011;6714;53.056;8.690;2023-08-21T14:19:51;1.30;;;1.20;;
13291;SDS011;6714;53.056;8.690;2023-08-21T14:22:34;1.50;;;1.40;;
13291;SDS011;6714;53.056;8.690;2023-08-21T14:25:16;1.48;;;1.05;;
13291;SDS011;6714;53.056;8.690;2023-08-21T14:28:00;2.80;;;0.98;;
13291;SDS011;6714;53.056;8.690;2023-08-21T14:30:42;1.15;;;1.05;;
13291;SDS011;6714;53.056;8.690;2023-08-21T14:33:25;1.05;;;1.00;;
13291;SDS011;6714;53.056;8.690;2023-08-21T14:36:07;1.75;;;1.15;;
13291;SDS011;6714;53.056;8.690;2023-08-21T14:38:49;1.02;;;0.93;;
13291;SDS011;6714;53.056;8.690;2023-08-21T14:41:31;0.98;;;0.98;;
13291;SDS011;6714;53.056;8.690;2023-08-21T14:44:15;1.25;;;1.15;;
13291;SDS011;6714;53.056;8.690;2023-08-21T14:46:57;0.95;;;0.88;;
13291;SDS011;6714;53.056;8.690;2023-08-21T14:49:39;1.40;;;1.30;;
13291;SDS011;6714;53.056;8.690;2023-08-21T14:52:22;1.20;;;1.10;;
13291;SDS011;6714;53.056;8.690;2023-08-21T14:55:05;2.15;;;1.13;;
13291;SDS011;6714;53.056;8.690;2023-08-21T14:57:47;1.23;;;1.13;;
13291;SDS011;6714;53.056;8.690;2023-08-21T15:00:31;1.20;;;1.10;;
13291;SDS011;6714;53.056;8.690;2023-08-21T15:03:13;1.10;;;1.10;;
13291;SDS011;6714;53.056;8.690;2023-08-21T15:05:55;1.20;;;1.08;;
13291;SDS011;6714;53.056;8.690;2023-08-21T15:08:37;1.00;;;1.00;;
13291;SDS011;6714;53.056;8.690;2023-08-21T15:11:21;1.00;;;1.00;;
13291;SDS011;6714;53.056;8.690;2023-08-21T15:14:08;1.33;;;1.20;;
13291;SDS011;6714;53.056;8.690;2023-08-21T15:16:52;1.50;;;1.40;;
13291;SDS011;6714;53.056;8.690;2023-08-21T15:19:35;1.30;;;1.20;;
13291;SDS011;6714;53.056;8.690;2023-08-21T15:22:17;0.82;;;0.82;;
13291;SDS011;6714;53.056;8.690;2023-08-21T15:24:59;1.02;;;1.02;;
13291;SDS011;6714;53.056;8.690;2023-08-21T15:27:43;1.00;;;1.00;;
13291;SDS011;6714;53.056;8.690;2023-08-21T15:30:25;1.38;;;1.27;;
13291;SDS011;6714;53.056;8.690;2023-08-21T15:33:09;1.13;;;1.00;;
13291;SDS011;6714;53.056;8.690;2023-08-21T15:35:51;1.20;;;1.20;;
13291;SDS011;6714;53.056;8.690;2023-08-21T15:38:33;1.10;;;1.00;;
13291;SDS011;6714;53.056;8.690;2023-08-21T15:41:15;1.30;;;1.20;;
13291;SDS011;6714;53.056;8.690;2023-08-21T15:43:58;1.10;;;1.10;;
13291;SDS011;6714;53.056;8.690;2023-08-21T15:46:40;1.58;;;1.13;;
13291;SDS011;6714;53.056;8.690;2023-08-21T15:49:23;1.10;;;1.10;;
13291;SDS011;6714;53.056;8.690;2023-08-21T15:52:05;1.25;;;1.15;;
13291;SDS011;6714;53.056;8.690;2023-08-21T15:54:48;1.30;;;1.10;;
13291;SDS011;6714;53.056;8.690;2023-08-21T15:57:31;1.00;;;1.00;;
13291;SDS011;6714;53.056;8.690;2023-08-21T16:00:14;1.67;;;1.20;;
13291;SDS011;6714;53.056;8.690;2023-08-21T16:02:56;1.58;;;1.10;;
13291;SDS011;6714;53.056;8.690;2023-08-21T16:05:40;1.80;;;1.00;;
13291;SDS011;6714;53.056;8.690;2023-08-21T16:08:22;1.13;;;1.00;;
13291;SDS011;6714;53.056;8.690;2023-08-21T16:11:04;1.00;;;1.00;;
13291;SDS011;6714;53.056;8.690;2023-08-21T16:13:46;1.13;;;1.00;;
13291;SDS011;6714;53.056;8.690;2023-08-21T16:16:28;1.83;;;1.50;;
13291;SDS011;6714;53.056;8.690;2023-08-21T16:19:11;1.08;;;1.00;;
13291;SDS011;6714;53.056;8.690;2023-08-21T16:21:54;1.17;;;1.15;;
13291;SDS011;6714;53.056;8.690;2023-08-21T16:24:36;1.27;;;1.10;;
13291;SDS011;6714;53.056;8.690;2023-08-21T16:27:19;1.08;;;1.08;;
13291;SDS011;6714;53.056;8.690;2023-08-21T16:30:01;1.25;;;1.17;;
13291;SDS011;6714;53.056;8.690;2023-08-21T16:32:44;1.20;;;1.00;;
13291;SDS011;6714;53.056;8.690;2023-08-21T16:35:26;1.83;;;1.27;;
13291;SDS011;6714;53.056;8.690;2023-08-21T16:38:09;1.17;;;1.08;;
13291;SDS011;6714;53.056;8.690;2023-08-21T16:40:52;1.17;;;1.10;;
13291;SDS011;6714;53.056;8.690;2023-08-21T16:43:34;1.35;;;1.25;;